Time,TemperatureF,DewpointF,PressureIn,WindDirection,WindDirectionDegrees,WindSpeedMPH,WindSpeedGustMPH,Humidity,HourlyPrecipIn,Conditions,Clouds,dailyrainin,SolarRadiationWatts/m^2,SoftwareType,DateUTC
2013-08-19 00:11:00,62.0,43.0,-100.00,NNW,334,1.0,15.0,50,0.00,,,0.00,0.000000,,2013-08-19 07:11:00,
2013-08-19 00:21:00,62.0,43.0,-100.00,NNW,334,1.0,15.0,50,0.00,,,0.00,0.000000,,2013-08-19 07:21:00,
2013-08-19 00:31:00,62.0,43.0,-100.00,NNW,334,1.0,15.0,50,0.00,,,0.00,0.000000,,2013-08-19 07:31:00,
2013-08-19 00:42:00,62.0,43.0,-100.00,NNW,334,1.0,15.0,50,0.00,,,0.00,0.000000,,2013-08-19 07:42:00,
2013-08-19 01:11:00,62.0,45.0,-100.00,West,277,16.0,23.0,53,0.00,,,0.00,0.000000,,2013-08-19 08:11:00,
2013-08-19 01:21:00,62.0,45.0,-100.00,West,277,16.0,23.0,53,0.00,,,0.00,0.000000,,2013-08-19 08:21:00,
2013-08-19 01:32:00,62.0,45.0,-100.00,West,277,16.0,23.0,53,0.00,,,0.00,0.000000,,2013-08-19 08:32:00,
2013-08-19 01:41:00,62.0,45.0,-100.00,West,277,16.0,23.0,53,0.00,,,0.00,0.000000,,2013-08-19 08:41:00,
2013-08-19 02:11:00,63.0,46.0,-100.00,WNW,291,17.0,25.0,53,0.00,,,0.00,0.000000,,2013-08-19 09:11:00,
2013-08-19 02:22:00,63.0,46.0,-100.00,WNW,291,17.0,25.0,53,0.00,,,0.00,0.000000,,2013-08-19 09:22:00,
2013-08-19 02:33:00,63.0,46.0,-100.00,WNW,291,17.0,25.0,53,0.00,,,0.00,0.000000,,2013-08-19 09:33:00,
2013-08-19 02:43:00,63.0,46.0,-100.00,WNW,291,17.0,25.0,53,0.00,,,0.00,0.000000,,2013-08-19 09:43:00,
2013-08-19 03:12:00,63.0,46.0,-100.00,WNW,283,17.0,28.0,54,0.00,,,0.00,0.000000,,2013-08-19 10:12:00,
2013-08-19 03:22:00,63.0,46.0,-100.00,WNW,283,17.0,28.0,54,0.00,,,0.00,0.000000,,2013-08-19 10:22:00,
2013-08-19 03:33:00,63.0,46.0,-100.00,WNW,283,17.0,28.0,54,0.00,,,0.00,0.000000,,2013-08-19 10:33:00,
2013-08-19 03:42:00,63.0,46.0,-100.00,WNW,283,17.0,28.0,54,0.00,,,0.00,0.000000,,2013-08-19 10:42:00,
2013-08-19 04:12:00,62.0,43.0,-100.00,WNW,297,17.0,29.0,50,0.00,,,0.00,0.000000,,2013-08-19 11:12:00,
2013-08-19 04:21:00,62.0,43.0,-100.00,WNW,297,17.0,29.0,50,0.00,,,0.00,0.000000,,2013-08-19 11:21:00,
2013-08-19 04:33:00,62.0,43.0,-100.00,WNW,297,17.0,29.0,50,0.00,,,0.00,0.000000,,2013-08-19 11:33:00,
2013-08-19 04:45:00,62.0,43.0,-100.00,WNW,297,17.0,29.0,50,0.00,,,0.00,0.000000,,2013-08-19 11:45:00,
2013-08-19 05:11:00,62.0,44.0,-100.00,NNW,330,13.0,22.0,51,0.00,,,0.00,0.000000,,2013-08-19 12:11:00,
2013-08-19 05:21:00,62.0,44.0,-100.00,NNW,330,13.0,22.0,51,0.00,,,0.00,0.000000,,2013-08-19 12:21:00,
2013-08-19 05:32:00,62.0,44.0,-100.00,NNW,330,13.0,22.0,51,0.00,,,0.00,0.000000,,2013-08-19 12:32:00,
2013-08-19 05:42:00,62.0,44.0,-100.00,NNW,330,13.0,22.0,51,0.00,,,0.00,0.000000,,2013-08-19 12:42:00,
2013-08-19 06:13:00,60.0,42.0,-100.00,WNW,302,17.0,23.0,51,0.00,,,0.00,0.000000,,2013-08-19 13:13:00,
2013-08-19 06:22:00,60.0,42.0,-100.00,WNW,302,17.0,23.0,51,0.00,,,0.00,0.000000,,2013-08-19 13:22:00,
2013-08-19 06:32:00,60.0,42.0,-100.00,WNW,302,17.0,23.0,51,0.00,,,0.00,0.000000,,2013-08-19 13:32:00,
2013-08-19 06:42:00,60.0,42.0,-100.00,WNW,302,17.0,23.0,51,0.00,,,0.00,0.000000,,2013-08-19 13:42:00,
2013-08-19 07:11:00,61.0,42.0,-100.00,NW,322,14.0,20.0,50,0.00,,,0.00,0.000000,,2013-08-19 14:11:00,
2013-08-19 07:21:00,61.0,42.0,-100.00,NW,322,14.0,20.0,50,0.00,,,0.00,0.000000,,2013-08-19 14:21:00,
2013-08-19 07:32:00,61.0,42.0,-100.00,NW,322,14.0,20.0,50,0.00,,,0.00,0.000000,,2013-08-19 14:32:00,
2013-08-19 07:42:00,61.0,42.0,-100.00,NW,322,14.0,20.0,50,0.00,,,0.00,0.000000,,2013-08-19 14:42:00,
2013-08-19 08:11:00,67.0,45.0,-100.00,NW,309,18.0,24.0,45,0.00,,,0.00,13.000000,,2013-08-19 15:11:00,
2013-08-19 08:22:00,67.0,45.0,-100.00,NW,309,18.0,24.0,45,0.00,,,0.00,13.000000,,2013-08-19 15:22:00,
2013-08-19 08:34:00,67.0,45.0,-100.00,NW,309,18.0,24.0,45,0.00,,,0.00,13.000000,,2013-08-19 15:34:00,
2013-08-19 08:44:00,67.0,45.0,-100.00,NW,309,18.0,24.0,45,0.00,,,0.00,13.000000,,2013-08-19 15:44:00,
2013-08-19 09:13:00,71.0,45.0,-100.00,WNW,295,16.0,25.0,40,0.00,,,0.00,159.000000,,2013-08-19 16:13:00,
2013-08-19 09:23:00,71.0,45.0,-100.00,WNW,295,16.0,25.0,40,0.00,,,0.00,159.000000,,2013-08-19 16:23:00,
2013-08-19 09:33:00,71.0,45.0,-100.00,WNW,295,16.0,25.0,40,0.00,,,0.00,159.000000,,2013-08-19 16:33:00,
2013-08-19 09:47:00,71.0,45.0,-100.00,WNW,295,16.0,25.0,40,0.00,,,0.00,159.000000,,2013-08-19 16:47:00,
2013-08-19 09:48:00,75.0,44.0,-100.00,WNW,294,14.0,21.0,33,0.00,,,0.00,334.000000,,2013-08-19 16:48:00,
2013-08-19 10:12:00,75.0,44.0,-100.00,WNW,294,14.0,21.0,33,0.00,,,0.00,334.000000,,2013-08-19 17:12:00,
2013-08-19 10:30:00,75.0,-99.9,-100.00,WNW,294,14.0,21.0,33,0.00,,,0.00,334.000000,,2013-08-19 17:30:00,
2013-08-19 10:38:00,75.0,44.0,-100.00,WNW,294,14.0,21.0,33,0.00,,,0.00,334.000000,,2013-08-19 17:38:00,
2013-08-19 10:48:00,-999.0,-99.9,-100.00,WNW,295,18.0,26.0,32,0.00,,,0.00,483.000000,,2013-08-19 17:48:00,
2013-08-19 11:19:00,77.0,45.0,-100.00,WNW,295,18.0,26.0,32,0.00,,,0.00,483.000000,,2013-08-19 18:19:00,
2013-08-19 11:28:00,77.0,45.0,-100.00,WNW,295,18.0,26.0,32,0.00,,,0.00,483.000000,,2013-08-19 18:28:00,
2013-08-19 11:38:00,77.0,45.0,-100.00,WNW,295,18.0,26.0,32,0.00,,,0.00,483.000000,,2013-08-19 18:38:00,
2013-08-19 11:48:00,78.0,46.0,-100.00,WNW,290,18.0,29.0,32,0.00,,,0.00,606.000000,,2013-08-19 18:48:00,
2013-08-19 12:16:00,78.0,46.0,-100.00,WNW,290,18.0,29.0,32,0.00,,,0.00,606.000000,,2013-08-19 19:16:00,
2013-08-19 12:30:00,-999.0,-99.9,-100.00,WNW,290,18.0,29.0,32,0.00,,,0.00,606.000000,,2013-08-19 19:30:00,
2013-08-19 12:40:00,78.0,46.0,-100.00,WNW,290,18.0,29.0,32,0.00,,,0.00,606.000000,,2013-08-19 19:40:00,
2013-08-19 12:48:00,79.0,46.0,-100.00,West,278,14.0,30.0,31,0.00,,,0.00,678.000000,,2013-08-19 19:48:00,
2013-08-19 13:20:00,79.0,46.0,-100.00,West,278,14.0,30.0,31,0.00,,,0.00,678.000000,,2013-08-19 20:20:00,
2013-08-19 13:30:00,79.0,46.0,-100.00,West,278,14.0,30.0,31,0.00,,,0.00,678.000000,,2013-08-19 20:30:00,
2013-08-19 13:39:00,79.0,46.0,-100.00,West,278,14.0,30.0,31,0.00,,,0.00,678.000000,,2013-08-19 20:39:00,
2013-08-19 14:16:00,78.0,45.0,-100.00,NW,305,16.0,27.0,31,0.00,,,0.00,682.000000,,2013-08-19 21:16:00,
2013-08-19 14:25:00,78.0,45.0,-100.00,NW,305,16.0,27.0,31,0.00,,,0.00,682.000000,,2013-08-19 21:25:00,
2013-08-19 14:38:00,78.0,45.0,-100.00,NW,305,16.0,27.0,31,0.00,,,0.00,682.000000,,2013-08-19 21:38:00,
2013-08-19 14:45:00,78.0,45.0,-100.00,NW,305,16.0,27.0,31,0.00,,,0.00,682.000000,,2013-08-19 21:45:00,
2013-08-19 15:25:00,78.0,46.0,-100.00,WNW,298,18.0,31.0,32,0.00,,,0.00,648.000000,,2013-08-19 22:25:00,
2013-08-19 15:35:00,78.0,46.0,-100.00,WNW,298,18.0,31.0,32,0.00,,,0.00,648.000000,,2013-08-19 22:35:00,
2013-08-19 15:44:00,78.0,46.0,-100.00,WNW,298,18.0,31.0,32,0.00,,,0.00,648.000000,,2013-08-19 22:44:00,
2013-08-19 15:48:00,79.0,40.0,-100.00,West,279,19.0,32.0,25,0.00,,,0.00,538.000000,,2013-08-19 22:48:00,
2013-08-19 16:15:00,79.0,40.0,-100.00,West,279,19.0,32.0,25,0.00,,,0.00,538.000000,,2013-08-19 23:15:00,
2013-08-19 16:25:00,79.0,40.0,-100.00,West,279,19.0,32.0,25,0.00,,,0.00,538.000000,,2013-08-19 23:25:00,
2013-08-19 16:36:00,79.0,40.0,-100.00,West,279,19.0,32.0,25,0.00,,,0.00,538.000000,,2013-08-19 23:36:00,
2013-08-19 17:11:00,77.0,42.0,-100.00,WNW,288,22.0,29.0,29,0.00,,,0.00,392.000000,,2013-08-20 00:11:00,
2013-08-19 17:23:00,77.0,42.0,-100.00,WNW,288,22.0,29.0,29,0.00,,,0.00,392.000000,,2013-08-20 00:23:00,
2013-08-19 17:32:00,77.0,42.0,-100.00,WNW,288,22.0,29.0,29,0.00,,,0.00,392.000000,,2013-08-20 00:32:00,
2013-08-19 17:41:00,77.0,42.0,-100.00,WNW,288,22.0,29.0,29,0.00,,,0.00,392.000000,,2013-08-20 00:41:00,
2013-08-19 18:11:00,77.0,44.0,-100.00,WNW,294,21.0,32.0,31,0.00,,,0.00,224.000000,,2013-08-20 01:11:00,
2013-08-19 18:22:00,77.0,44.0,-100.00,WNW,294,21.0,32.0,31,0.00,,,0.00,224.000000,,2013-08-20 01:22:00,
2013-08-19 18:32:00,77.0,44.0,-100.00,WNW,294,21.0,32.0,31,0.00,,,0.00,224.000000,,2013-08-20 01:32:00,
2013-08-19 18:42:00,77.0,44.0,-100.00,WNW,294,21.0,32.0,31,0.00,,,0.00,224.000000,,2013-08-20 01:42:00,
2013-08-19 19:11:00,73.0,43.0,-100.00,WNW,299,18.0,30.0,34,0.00,,,0.00,36.000000,,2013-08-20 02:11:00,
2013-08-19 19:21:00,73.0,43.0,-100.00,WNW,299,18.0,30.0,34,0.00,,,0.00,36.000000,,2013-08-20 02:21:00,
2013-08-19 19:32:00,73.0,43.0,-100.00,WNW,299,18.0,30.0,34,0.00,,,0.00,36.000000,,2013-08-20 02:32:00,
2013-08-19 19:42:00,73.0,43.0,-100.00,WNW,299,18.0,30.0,34,0.00,,,0.00,36.000000,,2013-08-20 02:42:00,
2013-08-19 20:11:00,70.0,44.0,-100.00,WNW,294,15.0,27.0,39,0.00,,,0.00,0.000000,,2013-08-20 03:11:00,
2013-08-19 20:22:00,70.0,44.0,-100.00,WNW,294,15.0,27.0,39,0.00,,,0.00,0.000000,,2013-08-20 03:22:00,
2013-08-19 20:33:00,70.0,44.0,-100.00,WNW,294,15.0,27.0,39,0.00,,,0.00,0.000000,,2013-08-20 03:33:00,
2013-08-19 20:43:00,70.0,44.0,-100.00,WNW,294,15.0,27.0,39,0.00,,,0.00,0.000000,,2013-08-20 03:43:00,
2013-08-19 21:13:00,66.0,44.0,-100.00,WNW,299,14.0,23.0,45,0.00,,,0.00,0.000000,,2013-08-20 04:13:00,
2013-08-19 21:23:00,66.0,44.0,-100.00,WNW,299,14.0,23.0,45,0.00,,,0.00,0.000000,,2013-08-20 04:23:00,
2013-08-19 21:33:00,66.0,44.0,-100.00,WNW,299,14.0,23.0,45,0.00,,,0.00,0.000000,,2013-08-20 04:33:00,
2013-08-19 21:42:00,66.0,44.0,-100.00,WNW,299,14.0,23.0,45,0.00,,,0.00,0.000000,,2013-08-20 04:42:00,
2013-08-19 22:12:00,62.0,43.0,-100.00,NW,305,12.0,20.0,50,0.00,,,0.00,0.000000,,2013-08-20 05:12:00,
2013-08-19 22:22:00,62.0,43.0,-100.00,NW,305,12.0,20.0,50,0.00,,,0.00,0.000000,,2013-08-20 05:22:00,
2013-08-19 22:32:00,62.0,43.0,-100.00,NW,305,12.0,20.0,50,0.00,,,0.00,0.000000,,2013-08-20 05:32:00,
2013-08-19 22:42:00,62.0,43.0,-100.00,NW,305,12.0,20.0,50,0.00,,,0.00,0.000000,,2013-08-20 05:42:00,
2013-08-19 23:11:00,62.0,45.0,-100.00,WNW,302,14.0,19.0,53,0.00,,,-99.99,0.000000,,2013-08-20 06:11:00,
2013-08-19 23:21:00,62.0,45.0,-100.00,WNW,302,14.0,19.0,53,0.00,,,-99.99,0.000000,,2013-08-20 06:21:00,
2013-08-19 23:31:00,62.0,45.0,-100.00,WNW,302,14.0,19.0,53,0.00,,,-99.99,0.000000,,2013-08-20 06:31:00,
2013-08-19 23:42:00,62.0,45.0,-100.00,WNW,302,14.0,19.0,53,0.00,,,-99.99,0.000000,,2013-08-20 06:42:00,